North Rim, AZ (86052)

12:56 PM MST on February 19, 2017 (GMT -0700)
MAR412 | | Change Station

Elev 6828 ft 36.05 °N, 112.13 °W | Updated 51 minutes ago

Overcast
Overcast
33.0 °F
Feels Like 33 °F
N
0.0
Wind Variable Wind from SSW
Gusts 7.0 mph

Today
High -- | Low -- °F
--% Chance of Precip.
Yesterday
High -- | Low -- °F
Precip. -- in
Pressure 29.82 in
Visibility 8.0 miles
Clouds Mostly Cloudy 900 ft
Mostly Cloudy 1700 ft
Overcast 2100 ft
Windchill 33 °F
Dew Point 32 °F
Humidity 95%
Rainfall 0.15 in
Snow Depth Not available.
7:10 AM 6:13 PM
Last Quarter, 41% visible
METAR KGCN 191954Z 22011KT 8SM -RA BKN009 BKN017 OVC021 03/02 A2988 RMK AO2 UPB1855E03B13E21B36E37RAB21SNB10E13B15E19 SLP097 P0000 T00280017
Pressure 29.82 in
Visibility 8.0 miles
Clouds Mostly Cloudy 900 ft
Mostly Cloudy 1700 ft
Overcast 2100 ft
Windchill 33 °F
Dew Point 32 °F
Humidity 95%
Rainfall 0.15 in
Snow Depth Not available.
7:10 AM 6:13 PM
Last Quarter, 41% visible
METAR KGCN 191954Z 22011KT 8SM -RA BKN009 BKN017 OVC021 03/02 A2988 RMK AO2 UPB1855E03B13E21B36E37RAB21SNB10E13B15E19 SLP097 P0000 T00280017

Get Your Daily Forecast Email!

Thanks for signing up!

Be on the lookout for a verification email in your inbox.

You'll start receiving the daily forecast at 8 AM.

×

10-Day Weather Forecast

Almanac

Astronomy

Feb. 19, 2017 Rise Set
Actual Time
Civil Twilight
Nautical Twilight
Astronomical Twilight
Moon
Length of Visible Light
Length of Day
Tomorrow will be .
, % of the Moon is Illuminated

Today's Extremes

State Highs State Lows

Community

WunderPhotos

Upload Photos

1,962,540 photos uploaded!

WunderBlog® & News

Nearby

Air Quality

  Air Quality AQ Index Pollutant
Not available.

Snow Depth

Station Depth Elevation

Earthquake Activity

City Distance Mag. Time & Date
Minimum magnitude displayed is 2.5.

Coastal Water Temperatures

Place Temperature

Stations

Nearby Weather Stations

Station Location Temp. Windchill Dew Point Humidity Wind Precip. Elev Updated Type
                   

Watches & Warnings

There are currently no watches in effect.